Time;durP1;ratioP1;P1;durP2;ratioP2;P2;SDS_P1;SDS_P2;PMS_P1;PMS_P2;Temp;Humidity;BMP_temperature;BMP_pressure;BME280_temperature;BME280_humidity;BME280_pressure;Samples;Min_cycle;Max_cycle;Signal;HPM_P1;HPM_P2
2023/10/09 00:01:51;;;;;;;4.43;2.22;;;;;;;16.35;80.44;93589.41;5066533;28;20079;-74
2023/10/09 00:04:18;;;;;;;7.07;2.17;;;;;;;16.26;80.56;93598.59;5061123;28;20055;-74
2023/10/09 00:06:46;;;;;;;8.50;2.60;;;;;;;16.08;81.11;93597.00;5065392;28;20052;-73
2023/10/09 00:09:30;;;;;;;5.82;2.00;;;;;;;15.92;81.12;93580.41;5063164;28;20053;-74
2023/10/09 00:11:57;;;;;;;3.83;1.73;;;;;;;15.96;81.86;93595.25;5062143;28;20045;-74
2023/10/09 00:14:26;;;;;;;5.28;2.20;;;;;;;15.90;81.95;93585.81;5061757;28;20141;-74
2023/10/09 00:17:05;;;;;;;9.98;2.28;;;;;;;15.81;82.06;93576.84;5064604;28;20068;-73
2023/10/09 00:19:33;;;;;;;6.32;1.92;;;;;;;15.74;82.57;93588.13;5063866;28;20044;-73
2023/10/09 00:22:04;;;;;;;4.85;1.27;;;;;;;15.63;82.44;93584.59;5063554;28;20055;-74
2023/10/09 00:24:33;;;;;;;3.67;1.70;;;;;;;15.52;82.59;93582.81;5069550;28;20048;-74
2023/10/09 00:27:11;;;;;;;4.60;1.50;;;;;;;15.62;82.57;93600.34;5069615;28;20464;-74
2023/10/09 00:29:44;;;;;;;4.15;1.50;;;;;;;15.56;82.23;93602.03;5067017;28;20714;-75
2023/10/09 00:32:22;;;;;;;4.57;1.77;;;;;;;15.62;82.05;93603.72;5066709;28;20467;-75
2023/10/09 00:34:50;;;;;;;3.22;1.40;;;;;;;15.58;82.12;93602.63;5068766;28;20074;-74
2023/10/09 00:37:22;;;;;;;4.72;1.30;;;;;;;15.65;81.87;93602.50;5065677;28;20141;-74
2023/10/09 00:39:55;;;;;;;4.13;1.30;;;;;;;15.57;81.94;93584.72;5066996;28;20045;-75
2023/10/09 00:42:27;;;;;;;6.75;1.52;;;;;;;15.74;81.86;93600.31;5065642;28;20041;-74
2023/10/09 00:44:55;;;;;;;4.68;1.45;;;;;;;15.67;82.09;93600.44;5068182;28;20056;-74
2023/10/09 00:47:26;;;;;;;5.00;1.63;;;;;;;15.66;81.98;93591.09;5063916;28;20068;-75
2023/10/09 00:49:59;;;;;;;5.95;1.60;;;;;;;15.64;81.78;93585.34;5062170;28;20052;-74
2023/10/09 00:52:33;;;;;;;5.13;1.60;;;;;;;15.42;82.11;93569.69;5064783;28;20051;-74
2023/10/09 00:55:07;;;;;;;5.35;2.22;;;;;;;15.46;82.40;93594.09;5064711;28;20075;-72
2023/10/09 00:57:37;;;;;;;4.43;1.60;;;;;;;15.48;82.30;93600.63;5069451;28;20799;-74
2023/10/09 01:00:23;;;;;;;7.55;1.92;;;;;;;15.52;82.15;93603.53;5063635;28;20413;-74
2023/10/09 01:03:10;;;;;;;4.95;1.95;;;;;;;15.42;82.18;93591.16;5068898;28;20084;-74
2023/10/09 01:05:38;;;;;;;5.10;1.85;;;;;;;15.42;82.15;93598.16;5066284;28;20044;-73
2023/10/09 01:08:16;;;;;;;7.47;2.28;;;;;;;15.28;82.47;93584.69;5069222;28;20605;-73
2023/10/09 01:10:51;;;;;;;4.55;1.40;;;;;;;15.29;82.27;93601.78;5068670;28;20051;-74
2023/10/09 01:13:18;;;;;;;5.63;2.05;;;;;;;14.96;83.20;93607.34;5065656;28;20076;-72
2023/10/09 01:15:48;;;;;;;4.93;1.48;;;;;;;14.99;82.75;93597.59;5062245;28;20061;-74
2023/10/09 01:18:15;;;;;;;3.92;1.50;;;;;;;14.93;83.35;93607.03;5068384;28;20059;-74
2023/10/09 01:20:45;;;;;;;5.85;1.08;;;;;;;14.78;84.04;93597.94;5062195;28;20068;-74
2023/10/09 01:23:13;;;;;;;4.05;1.45;;;;;;;14.55;84.17;93567.69;5060517;28;20052;-73
2023/10/09 01:25:46;;;;;;;2.58;1.10;;;;;;;14.60;85.12;93601.41;5065252;28;20129;-74
2023/10/09 01:28:15;;;;;;;4.35;1.20;;;;;;;14.51;85.54;93600.94;5067725;28;20072;-73
2023/10/09 01:30:43;;;;;;;4.15;1.40;;;;;;;14.48;85.68;93603.19;5063431;28;20041;-73
2023/10/09 01:33:22;;;;;;;6.18;1.70;;;;;;;14.36;86.65;93619.47;5064070;28;20135;-74
2023/10/09 01:35:55;;;;;;;4.15;1.95;;;;;;;14.21;88.17;93632.03;5068391;28;20049;-74
2023/10/09 01:38:32;;;;;;;4.60;2.05;;;;;;;14.13;88.22;93625.38;5065710;28;20092;-74
2023/10/09 01:41:06;;;;;;;5.25;1.75;;;;;;;13.97;89.34;93648.25;5063577;28;20049;-72
2023/10/09 01:43:35;;;;;;;7.40;2.28;;;;;;;13.89;89.82;93627.91;5063736;28;20049;-73
2023/10/09 01:46:03;;;;;;;4.30;1.30;;;;;;;13.80;89.68;93629.22;5067503;28;20146;-73
2023/10/09 01:48:35;;;;;;;4.40;2.20;;;;;;;13.94;89.50;93656.44;5068430;28;20049;-73
2023/10/09 01:51:04;;;;;;;5.15;2.13;;;;;;;13.81;89.96;93667.72;5064454;28;20097;-72
2023/10/09 01:53:33;;;;;;;3.42;1.55;;;;;;;13.80;90.31;93673.09;5067349;28;20508;-74
2023/10/09 01:56:10;;;;;;;7.60;1.60;;;;;;;13.61;90.62;93645.50;5062897;28;20121;-73
2023/10/09 01:58:37;;;;;;;4.75;1.83;;;;;;;13.72;90.88;93638.03;5068049;28;20515;-73
2023/10/09 02:01:06;;;;;;;3.05;1.35;;;;;;;13.60;91.15;93617.31;5062339;28;20135;-73
2023/10/09 02:03:36;;;;;;;3.33;1.73;;;;;;;13.67;91.38;93637.91;5061309;28;20045;-73
2023/10/09 02:06:24;;;;;;;4.93;1.98;;;;;;;13.55;92.61;93651.53;5068718;28;20458;-73
2023/10/09 02:08:53;;;;;;;3.17;1.88;;;;;;;13.52;93.01;93669.25;5066671;28;20127;-73
2023/10/09 02:11:24;;;;;;;4.50;2.30;;;;;;;13.46;92.87;93668.28;5061892;28;20057;-73
2023/10/09 02:13:57;;;;;;;4.85;1.80;;;;;;;13.51;92.24;93665.88;5061643;28;20420;-73
2023/10/09 02:16:29;;;;;;;2.65;1.63;;;;;;;13.61;91.27;93657.66;5065523;28;20053;-72
2023/10/09 02:18:58;;;;;;;3.70;1.85;;;;;;;13.56;90.86;93666.03;5064767;28;20044;-73
2023/10/09 02:21:34;;;;;;;4.47;1.52;;;;;;;13.36;91.34;93636.06;5064624;28;20137;-73
2023/10/09 02:24:09;;;;;;;3.63;1.55;;;;;;;13.68;90.29;93671.25;5065556;28;20412;-75
2023/10/09 02:27:06;;;;;;;4.18;1.70;;;;;;;13.49;90.52;93673.06;5065749;28;20045;-74
2023/10/09 02:29:28;;;;;;;3.88;1.67;;;;;;;13.45;90.32;93670.09;5064266;28;20052;-74
2023/10/09 02:32:00;;;;;;;3.67;2.00;;;;;;;13.33;90.98;93674.41;5061813;28;20056;-74
2023/10/09 02:34:29;;;;;;;4.57;1.92;;;;;;;13.28;90.62;93672.44;5061419;28;20052;-75
2023/10/09 02:37:04;;;;;;;5.80;1.75;;;;;;;13.24;90.62;93676.44;5060628;28;20425;-76
2023/10/09 02:39:36;;;;;;;4.38;1.92;;;;;;;13.17;90.79;93686.06;5059857;28;20045;-74
2023/10/09 02:42:19;;;;;;;3.58;1.80;;;;;;;12.89;91.18;93661.53;5066625;28;20048;-74
2023/10/09 02:44:49;;;;;;;3.00;2.15;;;;;;;13.10;91.19;93693.84;5066776;28;20048;-74
2023/10/09 02:47:20;;;;;;;4.03;2.10;;;;;;;13.05;91.39;93691.91;5063323;28;20505;-74
2023/10/09 02:49:50;;;;;;;5.00;1.67;;;;;;;13.15;91.02;93695.81;5063859;28;20067;-73
2023/10/09 02:52:18;;;;;;;4.13;1.90;;;;;;;13.28;90.12;93692.31;5060990;28;20094;-73
2023/10/09 02:54:47;;;;;;;4.47;1.80;;;;;;;13.23;90.36;93695.50;5066248;28;20143;-73
2023/10/09 02:57:21;;;;;;;4.60;2.20;;;;;;;13.29;90.15;93699.06;5064670;28;20040;-74
2023/10/09 02:59:51;;;;;;;3.72;1.95;;;;;;;13.29;89.92;93699.81;5065771;28;20052;-74
2023/10/09 03:02:19;;;;;;;2.97;1.90;;;;;;;13.26;89.71;93696.88;5062580;28;20160;-74
2023/10/09 03:04:45;;;;;;;4.50;2.20;;;;;;;13.34;89.81;93712.88;5067960;28;20044;-74
2023/10/09 03:07:13;;;;;;;3.03;1.70;;;;;;;13.41;89.17;93710.22;5059644;28;20063;-74
2023/10/09 03:09:41;;;;;;;9.23;1.88;;;;;;;13.45;88.62;93711.38;5063715;28;20048;-74
2023/10/09 03:12:12;;;;;;;5.53;1.80;;;;;;;13.51;88.50;93719.31;5061788;28;20133;-74
2023/10/09 03:14:39;;;;;;;6.15;1.95;;;;;;;13.52;87.88;93707.97;5063286;28;20052;-74
2023/10/09 03:17:11;;;;;;;6.03;2.05;;;;;;;13.60;87.35;93712.84;5062747;28;20048;-74
2023/10/09 03:19:38;;;;;;;3.97;1.67;;;;;;;13.63;87.57;93717.56;5063915;28;20040;-74
2023/10/09 03:22:09;;;;;;;6.22;2.13;;;;;;;13.47;86.51;93700.88;5066535;28;20052;-74
2023/10/09 03:24:36;;;;;;;3.38;1.80;;;;;;;13.61;86.42;93729.91;5066064;28;20044;-74
2023/10/09 03:27:03;;;;;;;3.75;1.67;;;;;;;13.63;86.34;93733.88;5062830;28;20053;-74
2023/10/09 03:29:33;;;;;;;3.63;1.65;;;;;;;13.49;86.58;93706.59;5066490;28;20052;-73
2023/10/09 03:32:00;;;;;;;3.65;1.63;;;;;;;13.65;85.65;93733.63;5062347;28;20058;-74
2023/10/09 03:34:27;;;;;;;6.20;2.20;;;;;;;13.65;85.78;93735.44;5065442;28;20053;-74
2023/10/09 03:37:03;;;;;;;3.28;1.50;;;;;;;13.58;85.44;93738.09;5064148;28;20131;-74
2023/10/09 03:39:41;;;;;;;4.07;2.15;;;;;;;13.57;86.00;93744.25;5066162;28;20497;-74
2023/10/09 03:42:11;;;;;;;4.53;2.00;;;;;;;13.47;85.69;93732.63;5066609;28;20121;-74
2023/10/09 03:44:43;;;;;;;4.78;1.67;;;;;;;13.51;86.60;93738.13;5062695;28;20076;-73
2023/10/09 03:47:11;;;;;;;2.88;1.60;;;;;;;13.35;85.18;93740.28;5063070;28;20065;-73
2023/10/09 03:49:39;;;;;;;4.28;2.20;;;;;;;13.23;86.68;93737.59;5063651;28;20385;-74
2023/10/09 03:52:08;;;;;;;4.03;1.60;;;;;;;13.14;87.59;93749.19;5065971;28;20056;-73
2023/10/09 03:54:35;;;;;;;3.15;2.10;;;;;;;13.10;87.96;93745.44;5064046;28;20052;-72
2023/10/09 03:57:02;;;;;;;3.53;1.90;;;;;;;13.06;87.73;93752.81;5060741;28;20130;-73
2023/10/09 03:59:31;;;;;;;4.55;1.85;;;;;;;12.87;87.77;93733.16;5067425;28;20055;-73
2023/10/09 04:02:00;;;;;;;3.42;2.00;;;;;;;12.98;87.44;93758.25;5061522;28;20126;-74
2023/10/09 04:04:28;;;;;;;3.50;1.77;;;;;;;12.94;87.10;93757.88;5063057;28;20048;-73
2023/10/09 04:06:55;;;;;;;2.00;1.20;;;;;;;12.59;84.32;93734.34;5068192;28;20124;-73
2023/10/09 04:09:35;;;;;;;5.35;1.75;;;;;;;12.49;88.08;93761.34;5070391;28;20056;-73
2023/10/09 04:12:21;;;;;;;3.45;1.60;;;;;;;12.06;88.68;93765.34;5066833;28;20048;-73
2023/10/09 04:14:54;;;;;;;3.80;1.55;;;;;;;11.96;87.52;93759.78;5069141;28;20057;-74
2023/10/09 04:17:35;;;;;;;3.42;1.42;;;;;;;11.76;86.09;93766.59;5070117;28;20063;-73
2023/10/09 04:22:51;;;;;;;6.35;1.42;;;;;;;11.82;87.83;93759.84;5066318;28;20051;-73
2023/10/09 04:25:25;;;;;;;2.63;1.40;;;;;;;11.88;85.38;93765.97;5069924;28;20054;-74
2023/10/09 04:27:59;;;;;;;3.33;1.10;;;;;;;11.80;85.54;93761.81;5064669;28;20052;-74
2023/10/09 04:30:27;;;;;;;2.20;1.20;;;;;;;11.76;84.19;93766.59;5067577;28;20060;-74
2023/10/09 04:32:59;;;;;;;3.08;1.42;;;;;;;11.66;84.89;93773.94;5067802;28;20067;-73
2023/10/09 04:35:32;;;;;;;2.60;0.95;;;;;;;11.35;84.50;93768.47;5067017;28;20098;-73
2023/10/09 04:38:05;;;;;;;2.35;1.20;;;;;;;11.20;84.79;93760.19;5068294;28;20044;-74
2023/10/09 04:40:59;;;;;;;3.15;1.10;;;;;;;11.08;86.22;93749.72;5066584;28;20052;-74
2023/10/09 04:43:26;;;;;;;3.78;1.60;;;;;;;11.10;86.06;93758.00;5069854;28;20079;-74
2023/10/09 04:46:07;;;;;;;3.65;1.52;;;;;;;11.14;86.49;93758.38;5068197;28;20534;-73
2023/10/09 04:48:37;;;;;;;4.97;1.48;;;;;;;11.27;88.52;93766.09;5066156;28;20139;-74
2023/10/09 04:51:34;;;;;;;6.80;1.20;;;;;;;11.45;88.18;93780.13;5068430;28;20040;-74
2023/10/09 04:54:12;;;;;;;3.58;1.40;;;;;;;11.52;86.24;93778.31;5066093;28;20106;-73
2023/10/09 04:56:51;;;;;;;5.15;1.40;;;;;;;11.43;84.46;93758.97;5065968;28;20052;-74
2023/10/09 04:59:24;;;;;;;2.53;1.27;;;;;;;11.58;84.71;93767.22;5067421;28;20591;-76
2023/10/09 05:01:58;;;;;;;5.78;1.50;;;;;;;11.66;84.34;93779.09;5069116;28;20045;-76
2023/10/09 05:04:39;;;;;;;5.82;1.30;;;;;;;11.57;84.08;93772.59;5073176;28;20048;-75
2023/10/09 05:07:22;;;;;;;3.90;1.30;;;;;;;11.71;84.12;93783.66;5072847;28;20046;-75
2023/10/09 05:10:17;;;;;;;4.75;1.13;;;;;;;11.73;83.99;93784.22;5072933;28;20072;-75
2023/10/09 05:12:47;;;;;;;4.57;1.75;;;;;;;11.81;84.37;93788.38;5073294;28;20120;-76
2023/10/09 05:15:14;;;;;;;6.63;2.25;;;;;;;11.81;84.41;93790.94;5072632;28;20052;-76
2023/10/09 05:17:51;;;;;;;5.85;2.10;;;;;;;11.80;84.91;93797.09;5071382;28;20052;-76
2023/10/09 05:23:23;;;;;;;4.22;1.80;;;;;;;11.68;83.26;93791.75;5071990;28;20182;-75
2023/10/09 05:25:58;;;;;;;;;;;;;;;11.70;81.73;93800.84;5069154;28;20064;-75
2023/10/09 05:28:48;;;;;;;;;;;;;;;11.73;81.21;93804.81;5069432;28;19920;-75
2023/10/09 05:31:44;;;;;;;2.67;1.05;;;;;;;11.50;77.25;93801.66;5067238;28;20283;-75
2023/10/09 05:34:06;;;;;;;3.00;1.30;;;;;;;11.54;78.57;93803.84;5067063;28;20127;-75
2023/10/09 05:36:36;;;;;;;5.13;0.95;;;;;;;11.43;78.24;93818.91;5062381;28;20044;-75
2023/10/09 05:39:29;;;;;;;2.63;0.95;;;;;;;11.26;78.83;93815.97;5068608;28;20053;-74
2023/10/09 05:42:07;;;;;;;3.30;1.80;;;;;;;11.16;78.64;93825.84;5067820;28;20056;-74
2023/10/09 05:47:35;;;;;;;8.48;1.88;;;;;;;11.26;80.24;93831.41;5027358;28;20044;-75
2023/10/09 06:03:55;;;;;;;1.85;1.08;;;;;;;11.49;75.92;93868.78;5067927;28;20050;-75
2023/10/09 06:06:42;;;;;;;3.42;1.23;;;;;;;11.65;73.36;93866.78;5067815;28;20040;-74
2023/10/09 06:09:28;;;;;;;3.15;1.80;;;;;;;11.76;72.65;93874.69;5068379;28;20036;-74
2023/10/09 06:12:24;;;;;;;;;;;;;;;11.90;71.84;93875.47;5066519;28;20451;-74
2023/10/09 06:14:57;;;;;;;2.85;0.93;;;;;;;11.78;72.52;93864.19;5065701;28;19924;-74
2023/10/09 06:17:27;;;;;;;2.65;1.10;;;;;;;11.95;71.21;93882.56;5071587;28;20508;-75
2023/10/09 06:19:58;;;;;;;2.70;1.20;;;;;;;12.01;71.79;93881.78;5070457;28;20588;-75
2023/10/09 06:25:13;;;;;;;2.47;1.33;;;;;;;12.37;69.70;93884.88;5064559;28;20059;-75
2023/10/09 06:30:34;;;;;;;2.65;0.80;;;;;;;12.14;66.80;93888.69;5059862;28;20044;-75
2023/10/09 06:33:19;;;;;;;1.65;0.90;;;;;;;12.19;66.84;93903.56;5066882;28;20053;-75
2023/10/09 06:35:53;;;;;;;2.30;1.05;;;;;;;12.33;66.61;93906.91;5068621;28;20045;-75
2023/10/09 06:38:23;;;;;;;3.38;0.70;;;;;;;12.46;66.37;93905.25;5069494;28;20048;-75
2023/10/09 06:43:42;;;;;;;2.88;1.00;;;;;;;12.77;67.14;93911.50;5069207;28;20051;-75
2023/10/09 06:49:15;;;;;;;3.47;1.00;;;;;;;13.19;66.94;93900.75;5058225;28;20060;-74
2023/10/09 06:51:41;;;;;;;5.13;2.30;;;;;;;13.26;63.50;93903.28;5069166;28;20127;-75
2023/10/09 06:54:17;;;;;;;3.20;1.17;;;;;;;13.26;62.39;93906.66;5068089;28;20463;-74
2023/10/09 07:00:51;;;;;;;1.77;0.77;;;;;;;12.91;61.97;93913.00;5067715;28;20040;-74
2023/10/09 07:02:45;;;;;;;3.08;1.17;;;;;;;13.02;62.91;93914.16;5067379;28;20123;-75
2023/10/09 07:05:17;;;;;;;1.40;0.63;;;;;;;12.83;61.55;93921.75;5067210;28;20055;-75
2023/10/09 07:07:54;;;;;;;1.55;0.80;;;;;;;12.95;60.98;93911.59;5073480;28;20047;-75
2023/10/09 07:10:32;;;;;;;2.72;1.10;;;;;;;13.09;60.34;93907.16;5069612;28;20116;-75
2023/10/09 07:13:01;;;;;;;3.60;0.80;;;;;;;13.20;59.42;93903.09;5068667;28;20052;-75
2023/10/09 07:18:40;;;;;;;1.58;0.75;;;;;;;13.39;58.21;93904.97;5071596;28;20483;-76
2023/10/09 07:21:11;;;;;;;2.17;0.82;;;;;;;13.43;58.59;93912.06;5066885;28;20051;-75
2023/10/09 07:23:48;;;;;;;1.83;0.95;;;;;;;13.47;58.06;93910.69;5072051;28;20076;-75
2023/10/09 07:26:23;;;;;;;1.95;0.93;;;;;;;13.68;57.50;93913.13;5071822;28;20048;-75
2023/10/09 07:29:08;;;;;;;2.23;1.00;;;;;;;13.73;56.67;93906.34;5071848;28;20052;-75
2023/10/09 07:31:45;;;;;;;2.10;0.90;;;;;;;13.26;55.53;93903.28;5068536;28;20052;-75
2023/10/09 07:36:56;;;;;;;1.63;0.90;;;;;;;13.24;55.66;93900.91;5068645;28;20088;-74
2023/10/09 07:39:24;;;;;;;2.47;0.98;;;;;;;13.39;55.42;93916.09;5068649;28;20825;-75
2023/10/09 07:42:01;;;;;;;3.10;0.90;;;;;;;13.61;54.59;93908.03;5066064;28;20041;-75
2023/10/09 07:44:39;;;;;;;2.58;1.10;;;;;;;13.70;54.50;93914.50;5066725;28;20068;-75
2023/10/09 07:47:17;;;;;;;2.85;0.80;;;;;;;13.91;53.82;93904.78;5067984;28;20060;-76
2023/10/09 07:49:48;;;;;;;1.85;0.50;;;;;;;13.94;53.25;93901.00;5069265;28;20074;-76
2023/10/09 07:52:16;;;;;;;3.03;0.90;;;;;;;14.10;52.08;93900.44;5066367;28;20041;-76
2023/10/09 07:54:49;;;;;;;2.10;0.93;;;;;;;14.46;52.95;93908.41;5070297;28;20496;-76
2023/10/09 07:57:17;;;;;;;2.28;0.90;;;;;;;14.12;51.24;93920.91;5073757;28;20093;-75
2023/10/09 08:00:00;;;;;;;3.35;1.00;;;;;;;14.36;52.92;93908.13;5072154;28;20048;-76
2023/10/09 08:02:32;;;;;;;1.95;0.90;;;;;;;14.61;51.21;93915.00;5071258;28;20044;-75
2023/10/09 08:05:06;;;;;;;2.17;0.73;;;;;;;14.80;50.97;93915.78;5070786;28;20111;-75
2023/10/09 08:07:37;;;;;;;2.38;1.27;;;;;;;15.02;51.04;93915.31;5068988;28;20424;-75
2023/10/09 08:13:49;;;;;;;1.30;0.82;;;;;;;15.44;47.58;93912.75;5069820;28;20113;-75
2023/10/09 08:15:56;;;;;;;3.08;0.90;;;;;;;15.59;47.17;93919.28;5068167;28;20504;-75
2023/10/09 08:18:28;;;;;;;1.85;0.75;;;;;;;15.29;48.13;93915.75;5073066;28;20052;-75
2023/10/09 08:23:49;;;;;;;2.30;1.02;;;;;;;14.92;47.90;93897.75;5074065;28;20091;-74
2023/10/09 08:26:28;;;;;;;3.28;1.05;;;;;;;15.06;49.36;93906.91;5075634;28;20141;-75
2023/10/09 08:29:15;;;;;;;2.10;0.80;;;;;;;15.18;49.27;93901.75;5068344;28;20080;-76
2023/10/09 08:31:46;;;;;;;1.92;0.90;;;;;;;15.16;49.82;93897.81;5067297;28;20075;-75
2023/10/09 08:34:24;;;;;;;2.30;0.70;;;;;;;15.40;48.81;93895.28;5068310;28;20063;-75
2023/10/09 08:36:52;;;;;;;1.42;0.80;;;;;;;15.71;48.54;93889.03;5067902;28;20412;-75
2023/10/09 08:39:25;;;;;;;1.77;0.88;;;;;;;16.05;47.46;93893.66;5068059;28;20978;-75
2023/10/09 08:41:53;;;;;;;1.60;0.63;;;;;;;16.15;46.79;93877.53;5081535;28;20404;-75
2023/10/09 08:44:22;;;;;;;5.18;0.90;;;;;;;16.50;48.67;93860.34;5079977;28;20480;-75
2023/10/09 08:46:51;;;;;;;2.35;0.70;;;;;;;16.66;45.69;93877.00;5080268;28;20681;-75
2023/10/09 08:49:21;;;;;;;3.28;0.90;;;;;;;16.55;45.36;93870.81;5072820;28;20052;-75
2023/10/09 08:51:48;;;;;;;2.25;0.68;;;;;;;16.59;46.97;93851.19;5070353;28;20500;-75
2023/10/09 08:54:15;;;;;;;3.75;0.80;;;;;;;16.27;45.08;93857.59;5065951;28;20049;-75
2023/10/09 08:56:49;;;;;;;2.42;0.80;;;;;;;16.49;45.56;93867.34;5071664;28;20993;-75
2023/10/09 08:59:19;;;;;;;2.70;1.00;;;;;;;16.60;44.99;93863.13;5076697;28;20052;-75
2023/10/09 09:01:49;;;;;;;2.85;0.73;;;;;;;16.60;45.16;93864.91;5069433;28;20500;-75
2023/10/09 09:04:39;;;;;;;7.35;0.98;;;;;;;16.86;43.93;93868.00;5069599;28;20499;-75
2023/10/09 09:07:06;;;;;;;2.67;0.60;;;;;;;16.86;46.71;93865.41;5068827;28;20099;-75
2023/10/09 09:09:34;;;;;;;3.83;0.80;;;;;;;17.16;43.78;93856.59;5069630;28;20562;-75
2023/10/09 09:12:01;;;;;;;4.07;0.75;;;;;;;17.44;42.96;93858.34;5067846;28;20056;-75
2023/10/09 09:14:38;;;;;;;2.17;0.98;;;;;;;17.63;40.86;93855.50;5074360;28;20053;-76
2023/10/09 09:17:06;;;;;;;3.03;0.95;;;;;;;17.58;41.25;93865.81;5070467;28;20060;-75
2023/10/09 09:19:37;;;;;;;4.32;1.30;;;;;;;17.62;42.01;93866.91;5072800;28;20052;-75
2023/10/09 09:22:12;;;;;;;2.53;0.88;;;;;;;17.78;41.79;93867.94;5082397;28;20055;-75
2023/10/09 09:24:45;;;;;;;3.20;0.70;;;;;;;17.85;39.88;93867.75;5082730;28;20056;-73
2023/10/09 09:27:18;;;;;;;2.80;1.10;;;;;;;17.91;40.16;93851.19;5076875;28;20056;-73
2023/10/09 09:29:52;;;;;;;3.03;0.95;;;;;;;18.31;40.24;93857.19;5078536;28;20048;-73
2023/10/09 09:32:29;;;;;;;1.83;0.60;;;;;;;17.76;39.06;93855.19;5080917;28;20044;-73
2023/10/09 09:35:00;;;;;;;2.25;0.70;;;;;;;17.32;40.13;93855.81;5071298;28;20094;-73
2023/10/09 09:37:33;;;;;;;1.77;0.63;;;;;;;17.27;40.59;93857.56;5069281;28;20087;-73
2023/10/09 09:40:14;;;;;;;2.08;0.50;;;;;;;17.35;40.19;93857.16;5069964;28;20059;-73
2023/10/09 09:42:45;;;;;;;3.88;0.90;;;;;;;17.45;40.59;93852.13;5074455;28;20045;-73
2023/10/09 09:45:12;;;;;;;2.17;0.80;;;;;;;17.37;41.13;93852.53;5072813;28;20059;-73
2023/10/09 09:47:39;;;;;;;3.78;1.00;;;;;;;17.51;40.54;93853.00;5070507;28;20052;-73
2023/10/09 09:50:21;;;;;;;1.85;0.70;;;;;;;17.44;39.63;93850.56;5078689;28;20045;-73
2023/10/09 09:52:53;;;;;;;2.55;0.50;;;;;;;17.68;39.70;93852.19;5081663;28;20047;-73
2023/10/09 09:55:22;;;;;;;1.60;0.70;;;;;;;17.96;38.86;93856.47;5071899;28;20070;-74
2023/10/09 09:57:51;;;;;;;1.88;0.77;;;;;;;17.86;38.13;93853.72;5069558;28;20087;-73
2023/10/09 10:00:30;;;;;;;2.90;0.50;;;;;;;17.88;40.34;93828.31;5076341;28;20143;-73
2023/10/09 10:03:02;;;;;;;2.10;0.73;;;;;;;18.12;36.43;93834.09;5084010;28;20079;-73
2023/10/09 10:05:31;;;;;;;1.13;0.45;;;;;;;18.19;37.46;93814.94;5069757;28;20060;-73
2023/10/09 10:08:01;;;;;;;4.70;1.05;;;;;;;18.00;37.20;93821.19;5068375;28;20145;-73
2023/10/09 10:10:47;;;;;;;3.38;1.10;;;;;;;18.10;37.98;93809.38;5075304;28;20135;-73
2023/10/09 10:13:21;;;;;;;2.33;1.13;;;;;;;18.54;38.97;93813.75;5086018;28;20049;-73
2023/10/09 10:16:19;;;;;;;3.00;0.90;;;;;;;18.65;35.55;93814.66;5067651;28;20095;-73
2023/10/09 10:21:50;;;;;;;2.58;1.00;;;;;;;18.78;36.09;93795.25;5072542;28;20043;-73
2023/10/09 10:24:52;;;;;;;2.15;0.70;;;;;;;18.98;37.00;93783.47;5066965;28;20135;-73
2023/10/09 10:27:26;;;;;;;2.75;0.60;;;;;;;19.06;35.70;93743.97;5067697;28;20084;-73
2023/10/09 10:30:36;;;;;;;4.90;1.10;;;;;;;19.39;37.55;93765.53;5065066;28;20047;-73
2023/10/09 10:33:13;;;;;;;3.83;1.10;;;;;;;19.44;35.15;93751.78;5075411;28;20492;-73
2023/10/09 10:35:45;;;;;;;3.63;0.70;;;;;;;19.47;34.85;93762.47;5083832;28;20105;-73
2023/10/09 10:38:36;;;;;;;1.67;0.50;;;;;;;19.28;34.96;93763.91;5072010;28;20128;-73
2023/10/09 10:41:17;;;;;;;1.50;0.60;;;;;;;19.47;35.89;93756.47;5066851;28;20051;-73
2023/10/09 10:43:59;;;;;;;13.63;1.88;;;;;;;19.80;34.37;93759.00;5067147;28;20063;-73
2023/10/09 10:46:37;;;;;;;6.90;0.95;;;;;;;20.16;34.90;93746.13;5067167;28;20080;-73
2023/10/09 10:49:14;;;;;;;5.50;0.85;;;;;;;20.35;33.20;93743.84;5073295;28;20052;-73
2023/10/09 10:51:48;;;;;;;2.42;0.70;;;;;;;20.57;32.98;93735.00;5067764;28;20500;-73
2023/10/09 10:57:28;;;;;;;3.70;1.55;;;;;;;20.11;32.91;93740.91;5069051;28;20058;-73
2023/10/09 11:00:05;;;;;;;4.82;1.17;;;;;;;20.40;33.75;93738.63;5078855;28;20074;-73
2023/10/09 11:02:37;;;;;;;6.30;1.92;;;;;;;20.41;31.11;93745.41;5071391;28;20113;-73
2023/10/09 11:05:23;;;;;;;4.40;1.10;;;;;;;20.39;30.62;93746.72;5067799;28;20079;-73
2023/10/09 11:07:56;;;;;;;3.92;1.13;;;;;;;20.60;31.90;93734.47;5074059;28;20052;-73
2023/10/09 11:10:28;;;;;;;3.63;1.30;;;;;;;20.85;32.11;93735.56;5067277;28;20052;-73
2023/10/09 11:15:55;;;;;;;3.55;0.90;;;;;;;21.16;31.51;93727.72;5067683;28;20080;-73
2023/10/09 11:18:26;;;;;;;10.20;2.72;;;;;;;20.95;28.01;93732.97;5063190;28;20057;-73
2023/10/09 11:21:22;;;;;;;6.38;1.77;;;;;;;21.12;31.12;93707.63;5081661;28;20058;-73
2023/10/09 11:23:57;;;;;;;11.50;3.78;;;;;;;21.24;29.40;93713.34;5080866;28;20105;-73
2023/10/09 11:26:27;;;;;;;4.10;1.50;;;;;;;21.34;29.34;93702.09;5070721;28;20071;-73
2023/10/09 11:29:23;;;;;;;3.83;1.17;;;;;;;21.59;28.11;93701.25;5068477;28;20493;-73
2023/10/09 11:31:59;;;;;;;;;;;;;;;21.71;26.67;93693.13;5064655;28;20052;-74
2023/10/09 11:34:32;;;;;;;2.30;0.68;;;;;;;21.78;27.68;93686.81;5070946;28;19926;-73
2023/10/09 11:37:00;;;;;;;4.85;2.22;;;;;;;21.25;26.12;93688.81;5066513;28;20397;-73
2023/10/09 11:39:34;;;;;;;1.48;0.52;;;;;;;20.99;25.88;93691.44;5065592;28;20052;-73
2023/10/09 11:42:04;;;;;;;1.75;0.60;;;;;;;21.00;26.17;93697.44;5065922;28;20067;-73
2023/10/09 11:44:44;;;;;;;2.20;0.93;;;;;;;20.39;26.96;93697.13;5067108;28;20128;-73
2023/10/09 11:47:24;;;;;;;4.35;1.30;;;;;;;20.74;29.82;93685.16;5066822;28;20098;-73
2023/10/09 11:50:11;;;;;;;2.55;0.88;;;;;;;20.37;26.84;93658.25;5070304;28;20044;-73
2023/10/09 11:53:08;;;;;;;4.10;0.98;;;;;;;20.65;29.77;93668.47;5065221;28;20049;-73
2023/10/09 11:55:35;;;;;;;1.67;0.65;;;;;;;20.92;30.08;93657.75;5068988;28;20460;-74
2023/10/09 11:58:04;;;;;;;1.80;0.82;;;;;;;21.18;27.05;93667.38;5066928;28;20564;-73
2023/10/09 12:00:44;;;;;;;4.68;0.90;;;;;;;21.30;28.55;93646.97;5079482;28;20476;-73
2023/10/09 12:03:13;;;;;;;2.53;0.80;;;;;;;21.52;27.78;93642.47;5067877;28;20060;-73
2023/10/09 12:05:43;;;;;;;2.88;0.52;;;;;;;21.55;26.54;93639.28;5082627;28;20059;-73
2023/10/09 12:08:14;;;;;;;2.35;0.90;;;;;;;21.74;27.66;93627.22;5066587;28;20081;-73
2023/10/09 12:10:40;;;;;;;4.70;1.08;;;;;;;21.93;29.00;93631.06;5067955;28;20055;-73
2023/10/09 12:13:08;;;;;;;2.13;1.10;;;;;;;22.02;26.43;93629.41;5067163;28;20051;-74
2023/10/09 12:15:38;;;;;;;8.38;1.15;;;;;;;21.65;25.78;93628.81;5066930;28;20066;-74
2023/10/09 12:18:14;;;;;;;2.63;0.88;;;;;;;21.69;26.72;93634.28;5070262;28;20048;-74
2023/10/09 12:20:40;;;;;;;7.82;2.22;;;;;;;21.76;27.30;93619.88;5065406;28;20048;-75
2023/10/09 12:23:07;;;;;;;3.13;1.17;;;;;;;21.75;27.44;93620.94;5074037;28;20493;-75
2023/10/09 12:25:35;;;;;;;3.25;1.05;;;;;;;20.99;26.47;93622.75;5067224;28;20063;-74
2023/10/09 12:28:02;;;;;;;2.22;1.00;;;;;;;20.90;26.52;93612.84;5072742;28;20047;-74
2023/10/09 12:30:30;;;;;;;4.57;0.90;;;;;;;21.05;26.42;93608.63;5080016;28;20114;-75
2023/10/09 12:32:59;;;;;;;6.57;0.95;;;;;;;21.16;26.62;93609.41;5072789;28;20055;-75
2023/10/09 12:35:26;;;;;;;1.45;0.73;;;;;;;21.09;26.71;93605.25;5071411;28;20091;-75
2023/10/09 12:37:54;;;;;;;2.78;0.93;;;;;;;20.89;26.04;93602.66;5075741;28;20056;-75
2023/10/09 12:40:28;;;;;;;2.83;0.80;;;;;;;20.35;26.58;93591.72;5071665;28;20057;-75
2023/10/09 12:42:58;;;;;;;3.83;1.73;;;;;;;20.45;26.59;93593.56;5066312;28;20048;-75
2023/10/09 12:45:26;;;;;;;5.32;0.82;;;;;;;20.42;27.90;93577.38;5072629;28;20132;-75
2023/10/09 12:47:58;;;;;;;4.97;2.03;;;;;;;20.77;27.79;93585.44;5070439;28;20462;-75
2023/10/09 12:50:33;;;;;;;3.15;0.98;;;;;;;21.11;28.84;93586.69;5066727;28;20049;-75
2023/10/09 12:53:02;;;;;;;4.03;1.65;;;;;;;21.35;29.10;93576.41;5067575;28;20167;-75
2023/10/09 12:55:32;;;;;;;4.60;1.20;;;;;;;21.57;26.78;93577.09;5078196;28;20052;-75
2023/10/09 12:58:06;;;;;;;3.22;1.10;;;;;;;21.44;25.94;93578.47;5070063;28;20137;-75
2023/10/09 13:00:36;;;;;;;3.65;1.52;;;;;;;20.85;25.97;93578.09;5068582;28;20547;-75
2023/10/09 13:03:16;;;;;;;2.35;0.88;;;;;;;21.10;26.83;93572.06;5069232;28;20053;-75